sensor_id;sensor_type;location;lat;lon;timestamp;P1;durP1;ratioP1;P2;durP2;ratioP2
50066;SDS011;35952;52.524;13.340;2023-10-19T00:02:04;21.13;;;15.53;;
50066;SDS011;35952;52.524;13.340;2023-10-19T00:04:33;22.10;;;15.20;;
50066;SDS011;35952;52.524;13.340;2023-10-19T00:07:02;21.23;;;14.53;;
50066;SDS011;35952;52.524;13.340;2023-10-19T00:09:31;21.37;;;15.80;;
50066;SDS011;35952;52.524;13.340;2023-10-19T00:12:02;21.00;;;15.13;;
50066;SDS011;35952;52.524;13.340;2023-10-19T00:14:34;21.27;;;16.10;;
50066;SDS011;35952;52.524;13.340;2023-10-19T00:17:00;20.80;;;14.63;;
50066;SDS011;35952;52.524;13.340;2023-10-19T00:19:30;21.47;;;15.97;;
50066;SDS011;35952;52.524;13.340;2023-10-19T00:21:56;21.57;;;15.40;;
50066;SDS011;35952;52.524;13.340;2023-10-19T00:24:27;20.60;;;14.10;;
50066;SDS011;35952;52.524;13.340;2023-10-19T00:26:52;22.07;;;15.77;;
50066;SDS011;35952;52.524;13.340;2023-10-19T00:29:20;19.73;;;14.87;;
50066;SDS011;35952;52.524;13.340;2023-10-19T00:31:58;21.20;;;15.90;;
50066;SDS011;35952;52.524;13.340;2023-10-19T00:34:25;20.67;;;16.17;;
50066;SDS011;35952;52.524;13.340;2023-10-19T00:36:53;22.37;;;16.10;;
50066;SDS011;35952;52.524;13.340;2023-10-19T00:39:20;20.03;;;15.10;;
50066;SDS011;35952;52.524;13.340;2023-10-19T00:41:47;19.93;;;15.50;;
50066;SDS011;35952;52.524;13.340;2023-10-19T00:44:12;20.00;;;15.30;;
50066;SDS011;35952;52.524;13.340;2023-10-19T00:46:47;18.30;;;16.27;;
50066;SDS011;35952;52.524;13.340;2023-10-19T00:49:17;19.90;;;15.97;;
50066;SDS011;35952;52.524;13.340;2023-10-19T00:51:49;21.13;;;15.03;;
50066;SDS011;35952;52.524;13.340;2023-10-19T00:57:02;21.00;;;14.83;;
50066;SDS011;35952;52.524;13.340;2023-10-19T00:59:35;23.20;;;16.07;;
50066;SDS011;35952;52.524;13.340;2023-10-19T01:02:08;20.57;;;15.70;;
50066;SDS011;35952;52.524;13.340;2023-10-19T01:04:56;22.60;;;16.87;;
50066;SDS011;35952;52.524;13.340;2023-10-19T01:07:27;24.40;;;16.20;;
50066;SDS011;35952;52.524;13.340;2023-10-19T01:09:58;22.03;;;16.80;;
50066;SDS011;35952;52.524;13.340;2023-10-19T01:12:25;23.00;;;15.33;;
50066;SDS011;35952;52.524;13.340;2023-10-19T01:15:14;26.67;;;15.80;;
50066;SDS011;35952;52.524;13.340;2023-10-19T01:17:43;28.50;;;16.70;;
50066;SDS011;35952;52.524;13.340;2023-10-19T01:20:11;24.00;;;17.10;;
50066;SDS011;35952;52.524;13.340;2023-10-19T01:25:20;25.10;;;17.20;;
50066;SDS011;35952;52.524;13.340;2023-10-19T01:27:59;22.27;;;14.93;;
50066;SDS011;35952;52.524;13.340;2023-10-19T01:30:26;25.90;;;16.40;;
50066;SDS011;35952;52.524;13.340;2023-10-19T01:32:52;22.97;;;16.47;;
50066;SDS011;35952;52.524;13.340;2023-10-19T01:35:18;22.53;;;16.87;;
50066;SDS011;35952;52.524;13.340;2023-10-19T01:37:43;30.17;;;16.97;;
50066;SDS011;35952;52.524;13.340;2023-10-19T01:40:09;22.43;;;16.83;;
50066;SDS011;35952;52.524;13.340;2023-10-19T01:42:39;24.50;;;17.67;;
50066;SDS011;35952;52.524;13.340;2023-10-19T01:45:06;26.63;;;17.80;;
50066;SDS011;35952;52.524;13.340;2023-10-19T01:47:36;22.13;;;16.63;;
50066;SDS011;35952;52.524;13.340;2023-10-19T01:50:02;24.13;;;16.77;;
50066;SDS011;35952;52.524;13.340;2023-10-19T01:52:30;27.17;;;16.97;;
50066;SDS011;35952;52.524;13.340;2023-10-19T01:54:56;25.23;;;16.00;;
50066;SDS011;35952;52.524;13.340;2023-10-19T01:57:27;26.17;;;17.47;;
50066;SDS011;35952;52.524;13.340;2023-10-19T01:59:53;24.80;;;17.17;;
50066;SDS011;35952;52.524;13.340;2023-10-19T02:02:18;24.67;;;18.00;;
50066;SDS011;35952;52.524;13.340;2023-10-19T02:04:46;23.80;;;18.77;;
50066;SDS011;35952;52.524;13.340;2023-10-19T02:07:14;24.53;;;17.00;;
50066;SDS011;35952;52.524;13.340;2023-10-19T02:09:43;19.80;;;16.60;;
50066;SDS011;35952;52.524;13.340;2023-10-19T02:12:08;24.70;;;17.80;;
50066;SDS011;35952;52.524;13.340;2023-10-19T02:14:34;23.40;;;16.87;;
50066;SDS011;35952;52.524;13.340;2023-10-19T02:16:59;23.87;;;18.00;;
50066;SDS011;35952;52.524;13.340;2023-10-19T02:19:28;24.73;;;17.23;;
50066;SDS011;35952;52.524;13.340;2023-10-19T02:21:58;25.70;;;17.40;;
50066;SDS011;35952;52.524;13.340;2023-10-19T02:24:28;23.10;;;17.53;;
50066;SDS011;35952;52.524;13.340;2023-10-19T02:26:54;23.20;;;17.27;;
50066;SDS011;35952;52.524;13.340;2023-10-19T02:29:21;26.40;;;16.33;;
50066;SDS011;35952;52.524;13.340;2023-10-19T02:31:53;27.40;;;17.53;;
50066;SDS011;35952;52.524;13.340;2023-10-19T02:34:20;24.83;;;17.57;;
50066;SDS011;35952;52.524;13.340;2023-10-19T02:36:45;24.03;;;17.23;;
50066;SDS011;35952;52.524;13.340;2023-10-19T02:39:13;21.80;;;16.23;;
50066;SDS011;35952;52.524;13.340;2023-10-19T02:41:40;25.53;;;18.03;;
50066;SDS011;35952;52.524;13.340;2023-10-19T02:44:14;27.00;;;18.23;;
50066;SDS011;35952;52.524;13.340;2023-10-19T02:46:44;21.10;;;16.60;;
50066;SDS011;35952;52.524;13.340;2023-10-19T02:49:11;26.67;;;18.10;;
50066;SDS011;35952;52.524;13.340;2023-10-19T02:51:43;24.57;;;17.33;;
50066;SDS011;35952;52.524;13.340;2023-10-19T02:54:10;24.77;;;17.30;;
50066;SDS011;35952;52.524;13.340;2023-10-19T02:56:50;25.57;;;17.80;;
50066;SDS011;35952;52.524;13.340;2023-10-19T02:59:22;27.53;;;18.90;;
50066;SDS011;35952;52.524;13.340;2023-10-19T03:01:49;27.80;;;18.80;;
50066;SDS011;35952;52.524;13.340;2023-10-19T03:04:17;21.23;;;16.77;;
50066;SDS011;35952;52.524;13.340;2023-10-19T03:06:42;24.40;;;17.80;;
50066;SDS011;35952;52.524;13.340;2023-10-19T03:09:08;32.07;;;19.37;;
50066;SDS011;35952;52.524;13.340;2023-10-19T03:11:45;26.03;;;18.20;;
50066;SDS011;35952;52.524;13.340;2023-10-19T03:14:10;28.53;;;20.17;;
50066;SDS011;35952;52.524;13.340;2023-10-19T03:16:39;29.30;;;18.30;;
50066;SDS011;35952;52.524;13.340;2023-10-19T03:19:07;25.60;;;17.07;;
50066;SDS011;35952;52.524;13.340;2023-10-19T03:21:33;22.70;;;17.83;;
50066;SDS011;35952;52.524;13.340;2023-10-19T03:24:06;28.73;;;18.67;;
50066;SDS011;35952;52.524;13.340;2023-10-19T03:26:37;24.63;;;16.93;;
50066;SDS011;35952;52.524;13.340;2023-10-19T03:29:04;28.20;;;18.90;;
50066;SDS011;35952;52.524;13.340;2023-10-19T03:31:36;29.23;;;18.60;;
50066;SDS011;35952;52.524;13.340;2023-10-19T03:34:08;26.30;;;18.37;;
50066;SDS011;35952;52.524;13.340;2023-10-19T03:36:42;22.27;;;17.73;;
50066;SDS011;35952;52.524;13.340;2023-10-19T03:39:09;23.23;;;17.80;;
50066;SDS011;35952;52.524;13.340;2023-10-19T03:41:39;24.60;;;18.60;;
50066;SDS011;35952;52.524;13.340;2023-10-19T03:44:12;24.87;;;17.47;;
50066;SDS011;35952;52.524;13.340;2023-10-19T03:46:45;27.50;;;18.77;;
50066;SDS011;35952;52.524;13.340;2023-10-19T03:49:29;26.67;;;18.77;;
50066;SDS011;35952;52.524;13.340;2023-10-19T03:52:05;26.37;;;17.03;;
50066;SDS011;35952;52.524;13.340;2023-10-19T03:54:36;23.30;;;16.93;;
50066;SDS011;35952;52.524;13.340;2023-10-19T03:57:05;22.33;;;17.47;;
50066;SDS011;35952;52.524;13.340;2023-10-19T03:59:45;25.00;;;18.47;;
50066;SDS011;35952;52.524;13.340;2023-10-19T04:02:14;26.63;;;19.27;;
50066;SDS011;35952;52.524;13.340;2023-10-19T04:04:46;29.67;;;18.53;;
50066;SDS011;35952;52.524;13.340;2023-10-19T04:07:13;28.53;;;18.43;;
50066;SDS011;35952;52.524;13.340;2023-10-19T04:09:51;27.20;;;18.73;;
50066;SDS011;35952;52.524;13.340;2023-10-19T04:12:37;26.37;;;19.40;;
50066;SDS011;35952;52.524;13.340;2023-10-19T04:15:07;31.23;;;20.87;;
50066;SDS011;35952;52.524;13.340;2023-10-19T04:17:45;26.20;;;18.80;;
50066;SDS011;35952;52.524;13.340;2023-10-19T04:20:15;27.50;;;17.83;;
50066;SDS011;35952;52.524;13.340;2023-10-19T04:22:45;26.50;;;19.17;;
50066;SDS011;35952;52.524;13.340;2023-10-19T04:25:12;27.87;;;19.70;;
50066;SDS011;35952;52.524;13.340;2023-10-19T04:27:40;25.47;;;18.77;;
50066;SDS011;35952;52.524;13.340;2023-10-19T04:30:07;27.33;;;20.90;;
50066;SDS011;35952;52.524;13.340;2023-10-19T04:32:43;28.37;;;19.90;;
50066;SDS011;35952;52.524;13.340;2023-10-19T04:35:10;29.00;;;20.30;;
50066;SDS011;35952;52.524;13.340;2023-10-19T04:37:38;28.77;;;19.30;;
50066;SDS011;35952;52.524;13.340;2023-10-19T04:40:07;32.40;;;21.20;;
50066;SDS011;35952;52.524;13.340;2023-10-19T04:42:33;28.73;;;20.30;;
50066;SDS011;35952;52.524;13.340;2023-10-19T04:44:59;25.90;;;18.20;;
50066;SDS011;35952;52.524;13.340;2023-10-19T04:47:24;29.27;;;19.47;;
50066;SDS011;35952;52.524;13.340;2023-10-19T04:49:50;25.13;;;18.83;;
50066;SDS011;35952;52.524;13.340;2023-10-19T04:52:16;35.93;;;20.17;;
50066;SDS011;35952;52.524;13.340;2023-10-19T04:54:42;29.03;;;19.37;;
50066;SDS011;35952;52.524;13.340;2023-10-19T04:57:07;29.47;;;20.87;;
50066;SDS011;35952;52.524;13.340;2023-10-19T04:59:33;30.40;;;21.30;;
50066;SDS011;35952;52.524;13.340;2023-10-19T05:01:59;27.07;;;20.00;;
50066;SDS011;35952;52.524;13.340;2023-10-19T05:04:26;32.80;;;21.97;;
50066;SDS011;35952;52.524;13.340;2023-10-19T05:06:52;41.93;;;21.40;;
50066;SDS011;35952;52.524;13.340;2023-10-19T05:09:18;33.70;;;21.67;;
50066;SDS011;35952;52.524;13.340;2023-10-19T05:11:43;27.50;;;19.53;;
50066;SDS011;35952;52.524;13.340;2023-10-19T05:14:10;29.90;;;20.93;;
50066;SDS011;35952;52.524;13.340;2023-10-19T05:16:42;29.03;;;21.00;;
50066;SDS011;35952;52.524;13.340;2023-10-19T05:19:07;33.70;;;21.60;;
50066;SDS011;35952;52.524;13.340;2023-10-19T05:21:33;31.33;;;21.00;;
50066;SDS011;35952;52.524;13.340;2023-10-19T05:23:59;28.50;;;22.03;;
50066;SDS011;35952;52.524;13.340;2023-10-19T05:26:25;30.53;;;21.10;;
50066;SDS011;35952;52.524;13.340;2023-10-19T05:28:51;31.27;;;21.53;;
50066;SDS011;35952;52.524;13.340;2023-10-19T05:31:17;25.67;;;20.93;;
50066;SDS011;35952;52.524;13.340;2023-10-19T05:33:42;28.63;;;20.60;;
50066;SDS011;35952;52.524;13.340;2023-10-19T05:36:08;27.27;;;20.97;;
50066;SDS011;35952;52.524;13.340;2023-10-19T05:38:34;34.90;;;22.53;;
50066;SDS011;35952;52.524;13.340;2023-10-19T05:40:59;31.10;;;21.27;;
50066;SDS011;35952;52.524;13.340;2023-10-19T05:43:25;30.23;;;21.70;;
50066;SDS011;35952;52.524;13.340;2023-10-19T05:45:51;31.20;;;23.40;;
50066;SDS011;35952;52.524;13.340;2023-10-19T05:48:17;36.40;;;21.77;;
50066;SDS011;35952;52.524;13.340;2023-10-19T05:50:42;32.43;;;21.37;;
50066;SDS011;35952;52.524;13.340;2023-10-19T05:53:08;35.40;;;22.30;;
50066;SDS011;35952;52.524;13.340;2023-10-19T05:55:34;33.07;;;23.97;;
50066;SDS011;35952;52.524;13.340;2023-10-19T05:58:01;34.07;;;21.50;;
50066;SDS011;35952;52.524;13.340;2023-10-19T06:00:29;31.00;;;22.33;;
50066;SDS011;35952;52.524;13.340;2023-10-19T06:02:55;37.27;;;24.57;;
50066;SDS011;35952;52.524;13.340;2023-10-19T06:05:22;31.53;;;22.60;;
50066;SDS011;35952;52.524;13.340;2023-10-19T06:07:49;38.23;;;23.17;;
50066;SDS011;35952;52.524;13.340;2023-10-19T06:10:18;31.20;;;22.90;;
50066;SDS011;35952;52.524;13.340;2023-10-19T06:12:45;34.70;;;25.13;;
50066;SDS011;35952;52.524;13.340;2023-10-19T06:15:13;34.63;;;24.07;;
50066;SDS011;35952;52.524;13.340;2023-10-19T06:17:40;40.07;;;24.40;;
50066;SDS011;35952;52.524;13.340;2023-10-19T06:20:07;33.40;;;24.23;;
50066;SDS011;35952;52.524;13.340;2023-10-19T06:22:37;37.87;;;26.33;;
50066;SDS011;35952;52.524;13.340;2023-10-19T06:25:02;33.70;;;23.67;;
50066;SDS011;35952;52.524;13.340;2023-10-19T06:27:31;40.47;;;28.17;;
50066;SDS011;35952;52.524;13.340;2023-10-19T06:29:57;41.83;;;25.63;;
50066;SDS011;35952;52.524;13.340;2023-10-19T06:32:22;40.20;;;26.53;;
50066;SDS011;35952;52.524;13.340;2023-10-19T06:34:48;34.27;;;26.93;;
50066;SDS011;35952;52.524;13.340;2023-10-19T06:37:13;47.57;;;29.00;;
50066;SDS011;35952;52.524;13.340;2023-10-19T06:39:39;43.60;;;29.23;;
50066;SDS011;35952;52.524;13.340;2023-10-19T06:42:08;42.13;;;27.70;;
50066;SDS011;35952;52.524;13.340;2023-10-19T06:44:38;39.13;;;28.77;;
50066;SDS011;35952;52.524;13.340;2023-10-19T06:47:05;44.40;;;29.10;;
50066;SDS011;35952;52.524;13.340;2023-10-19T06:49:31;44.30;;;28.80;;
50066;SDS011;35952;52.524;13.340;2023-10-19T06:51:57;39.33;;;27.23;;
50066;SDS011;35952;52.524;13.340;2023-10-19T06:54:23;45.63;;;29.53;;
50066;SDS011;35952;52.524;13.340;2023-10-19T06:56:49;37.40;;;28.20;;
50066;SDS011;35952;52.524;13.340;2023-10-19T06:59:14;43.07;;;26.00;;
50066;SDS011;35952;52.524;13.340;2023-10-19T07:01:40;43.03;;;27.83;;
50066;SDS011;35952;52.524;13.340;2023-10-19T07:04:05;44.73;;;29.30;;
50066;SDS011;35952;52.524;13.340;2023-10-19T07:06:31;48.03;;;27.40;;
50066;SDS011;35952;52.524;13.340;2023-10-19T07:08:56;39.23;;;28.23;;
50066;SDS011;35952;52.524;13.340;2023-10-19T07:11:23;47.23;;;29.80;;
50066;SDS011;35952;52.524;13.340;2023-10-19T07:13:49;49.00;;;29.43;;
50066;SDS011;35952;52.524;13.340;2023-10-19T07:16:14;47.57;;;30.43;;
50066;SDS011;35952;52.524;13.340;2023-10-19T07:18:40;49.97;;;31.83;;
50066;SDS011;35952;52.524;13.340;2023-10-19T07:21:05;49.90;;;28.60;;
50066;SDS011;35952;52.524;13.340;2023-10-19T07:23:34;46.27;;;28.50;;
50066;SDS011;35952;52.524;13.340;2023-10-19T07:26:02;43.30;;;28.80;;
50066;SDS011;35952;52.524;13.340;2023-10-19T07:28:29;43.00;;;30.17;;
50066;SDS011;35952;52.524;13.340;2023-10-19T07:30:55;47.77;;;31.10;;
50066;SDS011;35952;52.524;13.340;2023-10-19T07:33:24;44.90;;;29.77;;
50066;SDS011;35952;52.524;13.340;2023-10-19T07:35:51;37.50;;;27.50;;
50066;SDS011;35952;52.524;13.340;2023-10-19T07:38:21;38.93;;;27.60;;
50066;SDS011;35952;52.524;13.340;2023-10-19T07:40:48;40.17;;;25.80;;
50066;SDS011;35952;52.524;13.340;2023-10-19T07:43:13;35.37;;;23.00;;
50066;SDS011;35952;52.524;13.340;2023-10-19T07:45:39;35.50;;;25.40;;
50066;SDS011;35952;52.524;13.340;2023-10-19T07:48:05;33.87;;;24.07;;
50066;SDS011;35952;52.524;13.340;2023-10-19T07:50:34;34.03;;;24.33;;
50066;SDS011;35952;52.524;13.340;2023-10-19T07:53:01;36.93;;;25.37;;
50066;SDS011;35952;52.524;13.340;2023-10-19T07:55:27;43.40;;;27.50;;
50066;SDS011;35952;52.524;13.340;2023-10-19T07:57:53;32.40;;;23.80;;
50066;SDS011;35952;52.524;13.340;2023-10-19T08:00:19;37.47;;;25.27;;
50066;SDS011;35952;52.524;13.340;2023-10-19T08:02:46;33.37;;;23.77;;
50066;SDS011;35952;52.524;13.340;2023-10-19T08:05:12;31.50;;;24.10;;
50066;SDS011;35952;52.524;13.340;2023-10-19T08:07:43;32.50;;;22.70;;
50066;SDS011;35952;52.524;13.340;2023-10-19T08:10:09;35.40;;;24.13;;
50066;SDS011;35952;52.524;13.340;2023-10-19T08:12:37;30.63;;;22.53;;
50066;SDS011;35952;52.524;13.340;2023-10-19T08:15:06;31.73;;;22.87;;
50066;SDS011;35952;52.524;13.340;2023-10-19T08:17:32;33.13;;;22.10;;
50066;SDS011;35952;52.524;13.340;2023-10-19T08:19:59;33.33;;;22.53;;
50066;SDS011;35952;52.524;13.340;2023-10-19T08:22:27;38.73;;;22.97;;
50066;SDS011;35952;52.524;13.340;2023-10-19T08:24:53;35.70;;;23.93;;
50066;SDS011;35952;52.524;13.340;2023-10-19T08:27:19;26.83;;;21.60;;
50066;SDS011;35952;52.524;13.340;2023-10-19T08:29:46;30.53;;;22.20;;
50066;SDS011;35952;52.524;13.340;2023-10-19T08:32:12;28.90;;;21.57;;
50066;SDS011;35952;52.524;13.340;2023-10-19T08:34:39;35.07;;;21.80;;
50066;SDS011;35952;52.524;13.340;2023-10-19T08:37:06;31.13;;;22.33;;
50066;SDS011;35952;52.524;13.340;2023-10-19T08:39:32;30.80;;;21.83;;
50066;SDS011;35952;52.524;13.340;2023-10-19T08:42:04;28.10;;;20.93;;
50066;SDS011;35952;52.524;13.340;2023-10-19T08:44:30;31.03;;;22.70;;
50066;SDS011;35952;52.524;13.340;2023-10-19T08:46:57;35.53;;;26.57;;
50066;SDS011;35952;52.524;13.340;2023-10-19T08:49:24;35.13;;;22.73;;
50066;SDS011;35952;52.524;13.340;2023-10-19T08:51:51;26.83;;;20.23;;
50066;SDS011;35952;52.524;13.340;2023-10-19T08:54:19;56.03;;;24.50;;
50066;SDS011;35952;52.524;13.340;2023-10-19T08:56:45;37.87;;;23.03;;
50066;SDS011;35952;52.524;13.340;2023-10-19T08:59:12;28.67;;;20.13;;
50066;SDS011;35952;52.524;13.340;2023-10-19T09:01:40;35.43;;;22.77;;
50066;SDS011;35952;52.524;13.340;2023-10-19T09:04:08;30.17;;;23.17;;
50066;SDS011;35952;52.524;13.340;2023-10-19T09:06:38;26.77;;;21.40;;
50066;SDS011;35952;52.524;13.340;2023-10-19T09:09:08;30.43;;;22.83;;
50066;SDS011;35952;52.524;13.340;2023-10-19T09:11:38;29.03;;;21.10;;
50066;SDS011;35952;52.524;13.340;2023-10-19T09:14:04;29.20;;;21.50;;
50066;SDS011;35952;52.524;13.340;2023-10-19T09:16:29;34.10;;;23.07;;
50066;SDS011;35952;52.524;13.340;2023-10-19T09:18:56;30.87;;;21.23;;
50066;SDS011;35952;52.524;13.340;2023-10-19T09:21:21;37.73;;;23.90;;
50066;SDS011;35952;52.524;13.340;2023-10-19T09:23:50;32.23;;;20.93;;
50066;SDS011;35952;52.524;13.340;2023-10-19T09:26:17;32.63;;;22.27;;
50066;SDS011;35952;52.524;13.340;2023-10-19T09:28:46;37.17;;;22.40;;
50066;SDS011;35952;52.524;13.340;2023-10-19T09:31:15;25.07;;;20.70;;
50066;SDS011;35952;52.524;13.340;2023-10-19T09:33:42;30.73;;;21.57;;
50066;SDS011;35952;52.524;13.340;2023-10-19T09:36:09;34.93;;;22.30;;
50066;SDS011;35952;52.524;13.340;2023-10-19T09:41:13;29.00;;;22.17;;
50066;SDS011;35952;52.524;13.340;2023-10-19T09:43:44;27.97;;;20.70;;
50066;SDS011;35952;52.524;13.340;2023-10-19T09:46:12;27.23;;;20.50;;
50066;SDS011;35952;52.524;13.340;2023-10-19T09:48:45;27.83;;;22.00;;
50066;SDS011;35952;52.524;13.340;2023-10-19T09:51:12;33.17;;;21.03;;
50066;SDS011;35952;52.524;13.340;2023-10-19T09:53:39;34.17;;;22.27;;
50066;SDS011;35952;52.524;13.340;2023-10-19T09:56:08;30.00;;;22.37;;
50066;SDS011;35952;52.524;13.340;2023-10-19T09:58:44;35.10;;;24.50;;
50066;SDS011;35952;52.524;13.340;2023-10-19T10:01:13;29.33;;;21.53;;
50066;SDS011;35952;52.524;13.340;2023-10-19T10:03:41;25.20;;;20.00;;
50066;SDS011;35952;52.524;13.340;2023-10-19T10:06:11;30.83;;;21.13;;
50066;SDS011;35952;52.524;13.340;2023-10-19T10:08:45;30.40;;;21.67;;
50066;SDS011;35952;52.524;13.340;2023-10-19T10:11:21;33.70;;;20.33;;
50066;SDS011;35952;52.524;13.340;2023-10-19T10:13:48;35.67;;;22.70;;
50066;SDS011;35952;52.524;13.340;2023-10-19T10:16:16;30.60;;;22.40;;
50066;SDS011;35952;52.524;13.340;2023-10-19T10:18:43;29.53;;;21.37;;
50066;SDS011;35952;52.524;13.340;2023-10-19T10:21:12;28.50;;;22.87;;
50066;SDS011;35952;52.524;13.340;2023-10-19T10:23:44;27.10;;;19.60;;
50066;SDS011;35952;52.524;13.340;2023-10-19T10:26:13;27.57;;;20.93;;
50066;SDS011;35952;52.524;13.340;2023-10-19T10:28:45;32.87;;;23.63;;
50066;SDS011;35952;52.524;13.340;2023-10-19T10:36:13;29.80;;;21.10;;
50066;SDS011;35952;52.524;13.340;2023-10-19T10:38:40;31.50;;;24.27;;
50066;SDS011;35952;52.524;13.340;2023-10-19T10:41:06;36.57;;;25.30;;
50066;SDS011;35952;52.524;13.340;2023-10-19T10:43:47;37.40;;;24.63;;
50066;SDS011;35952;52.524;13.340;2023-10-19T10:46:19;32.63;;;24.07;;
50066;SDS011;35952;52.524;13.340;2023-10-19T10:48:49;34.93;;;24.60;;
50066;SDS011;35952;52.524;13.340;2023-10-19T10:51:19;36.57;;;26.50;;
50066;SDS011;35952;52.524;13.340;2023-10-19T10:53:47;39.90;;;27.93;;
50066;SDS011;35952;52.524;13.340;2023-10-19T10:56:16;42.17;;;26.73;;
50066;SDS011;35952;52.524;13.340;2023-10-19T10:58:43;37.57;;;25.10;;
50066;SDS011;35952;52.524;13.340;2023-10-19T11:01:09;37.63;;;25.53;;
50066;SDS011;35952;52.524;13.340;2023-10-19T11:03:35;37.57;;;26.60;;
50066;SDS011;35952;52.524;13.340;2023-10-19T11:06:05;38.70;;;27.70;;
50066;SDS011;35952;52.524;13.340;2023-10-19T11:08:34;37.70;;;27.37;;
50066;SDS011;35952;52.524;13.340;2023-10-19T11:11:05;38.87;;;28.40;;
50066;SDS011;35952;52.524;13.340;2023-10-19T11:13:35;43.27;;;27.90;;
50066;SDS011;35952;52.524;13.340;2023-10-19T11:16:03;43.63;;;32.27;;
50066;SDS011;35952;52.524;13.340;2023-10-19T11:21:09;43.87;;;31.93;;
50066;SDS011;35952;52.524;13.340;2023-10-19T11:23:43;45.23;;;31.37;;
50066;SDS011;35952;52.524;13.340;2023-10-19T11:26:13;50.50;;;33.07;;
50066;SDS011;35952;52.524;13.340;2023-10-19T11:28:41;49.73;;;33.40;;
50066;SDS011;35952;52.524;13.340;2023-10-19T11:31:17;49.80;;;33.07;;
50066;SDS011;35952;52.524;13.340;2023-10-19T11:33:44;46.43;;;34.00;;
50066;SDS011;35952;52.524;13.340;2023-10-19T11:36:13;54.17;;;35.93;;
50066;SDS011;35952;52.524;13.340;2023-10-19T11:38:40;54.23;;;35.67;;
50066;SDS011;35952;52.524;13.340;2023-10-19T11:41:07;52.97;;;37.10;;
50066;SDS011;35952;52.524;13.340;2023-10-19T11:43:33;56.53;;;33.67;;
50066;SDS011;35952;52.524;13.340;2023-10-19T11:46:00;56.13;;;32.13;;
50066;SDS011;35952;52.524;13.340;2023-10-19T11:48:26;46.40;;;31.50;;
50066;SDS011;35952;52.524;13.340;2023-10-19T11:50:51;53.43;;;33.33;;
50066;SDS011;35952;52.524;13.340;2023-10-19T11:53:18;47.87;;;32.77;;
50066;SDS011;35952;52.524;13.340;2023-10-19T11:55:44;49.37;;;34.00;;
50066;SDS011;35952;52.524;13.340;2023-10-19T11:58:09;49.83;;;33.27;;
50066;SDS011;35952;52.524;13.340;2023-10-19T12:00:38;47.80;;;33.23;;
50066;SDS011;35952;52.524;13.340;2023-10-19T12:03:04;47.70;;;35.47;;
50066;SDS011;35952;52.524;13.340;2023-10-19T12:05:31;54.07;;;35.10;;
50066;SDS011;35952;52.524;13.340;2023-10-19T12:07:57;50.77;;;36.73;;
50066;SDS011;35952;52.524;13.340;2023-10-19T12:10:22;48.87;;;34.93;;
50066;SDS011;35952;52.524;13.340;2023-10-19T12:12:57;50.80;;;34.40;;
50066;SDS011;35952;52.524;13.340;2023-10-19T12:15:23;52.30;;;34.47;;
50066;SDS011;35952;52.524;13.340;2023-10-19T12:17:48;45.23;;;33.40;;
50066;SDS011;35952;52.524;13.340;2023-10-19T12:20:15;47.70;;;32.80;;
50066;SDS011;35952;52.524;13.340;2023-10-19T12:22:41;56.37;;;35.73;;
50066;SDS011;35952;52.524;13.340;2023-10-19T12:25:07;50.50;;;33.53;;
50066;SDS011;35952;52.524;13.340;2023-10-19T12:27:33;50.10;;;34.50;;
50066;SDS011;35952;52.524;13.340;2023-10-19T12:29:58;52.33;;;33.67;;
50066;SDS011;35952;52.524;13.340;2023-10-19T12:32:24;47.60;;;34.50;;
50066;SDS011;35952;52.524;13.340;2023-10-19T12:34:51;52.90;;;35.37;;
50066;SDS011;35952;52.524;13.340;2023-10-19T12:37:22;56.67;;;34.23;;
50066;SDS011;35952;52.524;13.340;2023-10-19T12:39:49;54.90;;;32.23;;
50066;SDS011;35952;52.524;13.340;2023-10-19T12:42:16;50.77;;;34.13;;
50066;SDS011;35952;52.524;13.340;2023-10-19T12:44:41;48.63;;;35.40;;
50066;SDS011;35952;52.524;13.340;2023-10-19T12:47:08;49.43;;;36.20;;
50066;SDS011;35952;52.524;13.340;2023-10-19T12:49:36;47.90;;;35.30;;
50066;SDS011;35952;52.524;13.340;2023-10-19T12:52:02;43.60;;;33.53;;
50066;SDS011;35952;52.524;13.340;2023-10-19T12:54:28;52.40;;;36.37;;
50066;SDS011;35952;52.524;13.340;2023-10-19T12:56:54;54.83;;;38.17;;
50066;SDS011;35952;52.524;13.340;2023-10-19T12:59:20;47.40;;;33.93;;
50066;SDS011;35952;52.524;13.340;2023-10-19T13:01:46;44.67;;;33.17;;
50066;SDS011;35952;52.524;13.340;2023-10-19T13:04:14;46.97;;;33.87;;
50066;SDS011;35952;52.524;13.340;2023-10-19T13:06:44;41.50;;;30.67;;
50066;SDS011;35952;52.524;13.340;2023-10-19T13:09:12;47.17;;;34.80;;
50066;SDS011;35952;52.524;13.340;2023-10-19T13:11:40;49.83;;;35.07;;
50066;SDS011;35952;52.524;13.340;2023-10-19T13:14:09;53.40;;;33.90;;
50066;SDS011;35952;52.524;13.340;2023-10-19T13:16:35;53.00;;;36.03;;
50066;SDS011;35952;52.524;13.340;2023-10-19T13:19:00;55.30;;;37.00;;
50066;SDS011;35952;52.524;13.340;2023-10-19T13:21:37;53.90;;;36.17;;
50066;SDS011;35952;52.524;13.340;2023-10-19T13:24:03;56.00;;;38.00;;
50066;SDS011;35952;52.524;13.340;2023-10-19T13:26:28;59.60;;;39.87;;
50066;SDS011;35952;52.524;13.340;2023-10-19T13:28:54;59.17;;;37.60;;
50066;SDS011;35952;52.524;13.340;2023-10-19T13:31:21;53.67;;;36.37;;
50066;SDS011;35952;52.524;13.340;2023-10-19T13:33:47;56.70;;;38.37;;
50066;SDS011;35952;52.524;13.340;2023-10-19T13:36:13;47.60;;;37.43;;
50066;SDS011;35952;52.524;13.340;2023-10-19T13:38:38;60.93;;;38.87;;
50066;SDS011;35952;52.524;13.340;2023-10-19T13:41:07;58.87;;;39.90;;
50066;SDS011;35952;52.524;13.340;2023-10-19T13:43:34;61.40;;;37.70;;
50066;SDS011;35952;52.524;13.340;2023-10-19T13:46:00;57.57;;;38.03;;
50066;SDS011;35952;52.524;13.340;2023-10-19T13:48:27;59.53;;;37.33;;
50066;SDS011;35952;52.524;13.340;2023-10-19T13:50:52;55.63;;;38.17;;
50066;SDS011;35952;52.524;13.340;2023-10-19T13:53:25;56.00;;;36.97;;
50066;SDS011;35952;52.524;13.340;2023-10-19T13:55:51;57.87;;;38.57;;
50066;SDS011;35952;52.524;13.340;2023-10-19T13:58:17;61.00;;;38.60;;
50066;SDS011;35952;52.524;13.340;2023-10-19T14:00:43;56.13;;;38.47;;
50066;SDS011;35952;52.524;13.340;2023-10-19T14:03:09;59.17;;;39.03;;
50066;SDS011;35952;52.524;13.340;2023-10-19T14:05:36;59.33;;;40.30;;
50066;SDS011;35952;52.524;13.340;2023-10-19T14:08:08;52.40;;;38.07;;
50066;SDS011;35952;52.524;13.340;2023-10-19T14:10:34;57.20;;;40.60;;
50066;SDS011;35952;52.524;13.340;2023-10-19T14:13:00;64.03;;;40.47;;
50066;SDS011;35952;52.524;13.340;2023-10-19T14:15:25;60.17;;;38.30;;
50066;SDS011;35952;52.524;13.340;2023-10-19T14:17:52;59.90;;;38.80;;
50066;SDS011;35952;52.524;13.340;2023-10-19T14:20:21;63.47;;;38.80;;
50066;SDS011;35952;52.524;13.340;2023-10-19T14:22:50;53.40;;;38.60;;
50066;SDS011;35952;52.524;13.340;2023-10-19T14:25:18;53.97;;;37.20;;
50066;SDS011;35952;52.524;13.340;2023-10-19T14:27:47;52.87;;;36.50;;
50066;SDS011;35952;52.524;13.340;2023-10-19T14:30:14;59.47;;;38.27;;